Time;durP1;ratioP1;P1;durP2;ratioP2;P2;SDS_P1;SDS_P2;PMS_P1;PMS_P2;Temp;Humidity;BMP_temperature;BMP_pressure;BME280_temperature;BME280_humidity;BME280_pressure;Samples;Min_cycle;Max_cycle;Signal;HPM_P1;HPM_P2
2023/04/28 00:01:29;;;;;;;5.00;4.60;;;15.60;66.20;;;;;;5040391;28;20744;-87
2023/04/28 00:03:56;;;;;;;4.90;4.40;;;15.60;66.80;;;;;;5039101;28;20229;-86
2023/04/28 00:06:22;;;;;;;4.70;4.20;;;15.60;68.10;;;;;;5040465;28;20268;-88
2023/04/28 00:08:47;;;;;;;4.83;4.43;;;15.50;68.60;;;;;;5059644;28;20616;-88
2023/04/28 00:11:13;;;;;;;4.30;4.00;;;15.40;70.50;;;;;;5060288;28;20261;-90
2023/04/28 00:13:39;;;;;;;4.43;3.87;;;15.30;71.20;;;;;;5059476;28;20661;-86
2023/04/28 00:16:05;;;;;;;6.07;4.47;;;15.30;71.20;;;;;;5041650;28;20208;-87
2023/04/28 00:18:32;;;;;;;4.90;4.50;;;15.30;72.00;;;;;;5059828;28;20168;-87
2023/04/28 00:20:57;;;;;;;4.47;4.17;;;15.40;71.70;;;;;;5059575;28;20188;-88
2023/04/28 00:23:23;;;;;;;4.90;4.40;;;15.40;70.70;;;;;;5050880;28;20216;-88
2023/04/28 00:25:52;;;;;;;4.80;4.40;;;15.50;66.10;;;;;;5038581;28;20601;-88
2023/04/28 00:28:18;;;;;;;4.70;4.30;;;15.50;70.00;;;;;;5038449;28;20179;-87
2023/04/28 00:30:43;;;;;;;5.07;4.57;;;15.40;70.70;;;;;;5039221;28;20695;-88
2023/04/28 00:33:09;;;;;;;5.43;4.60;;;15.30;72.00;;;;;;5038687;28;20200;-88
2023/04/28 00:35:35;;;;;;;5.10;4.60;;;15.40;71.90;;;;;;5048865;28;20183;-88
2023/04/28 00:38:00;;;;;;;5.23;4.50;;;15.40;72.30;;;;;;5056189;28;20278;-88
2023/04/28 00:40:37;;;;;;;5.73;5.10;;;15.50;72.20;;;;;;5057180;28;20271;-86
2023/04/28 00:43:04;;;;;;;5.93;5.20;;;15.60;72.30;;;;;;5042944;28;20212;-88
2023/04/28 00:45:30;;;;;;;4.70;4.30;;;15.60;71.80;;;;;;5055860;28;20181;-88
2023/04/28 00:47:56;;;;;;;6.93;4.90;;;15.50;71.80;;;;;;5056852;28;20182;-89
2023/04/28 00:50:24;;;;;;;5.73;5.23;;;15.40;73.00;;;;;;5057561;28;20232;-88
2023/04/28 00:52:51;;;;;;;5.30;4.80;;;15.50;73.00;;;;;;5059503;28;20755;-88
2023/04/28 00:55:16;;;;;;;4.90;4.50;;;15.50;72.00;;;;;;5057310;28;20180;-88
2023/04/28 00:57:42;;;;;;;5.10;4.63;;;15.50;73.40;;;;;;5020683;28;20188;-88
2023/04/28 01:00:08;;;;;;;5.20;4.70;;;15.50;73.40;;;;;;5038256;28;20184;-88
2023/04/28 01:02:38;;;;;;;5.20;4.80;;;15.50;73.60;;;;;;5037753;28;20670;-88
2023/04/28 01:05:04;;;;;;;5.27;4.80;;;15.50;75.20;;;;;;5037661;28;20272;-87
2023/04/28 01:07:29;;;;;;;5.00;4.60;;;15.40;75.70;;;;;;5038451;28;20267;-89
2023/04/28 01:09:55;;;;;;;5.30;4.90;;;15.10;77.50;;;;;;5037596;28;20691;-86
2023/04/28 01:12:21;;;;;;;4.70;4.30;;;15.00;77.30;;;;;;5044121;28;20281;-87
2023/04/28 01:14:49;;;;;;;5.07;4.77;;;15.00;78.40;;;;;;5058137;28;20177;-87
2023/04/28 01:17:15;;;;;;;5.10;4.70;;;14.90;79.40;;;;;;5039935;28;20231;-88
2023/04/28 01:19:40;;;;;;;5.50;4.97;;;14.90;78.50;;;;;;5058123;28;20180;-88
2023/04/28 01:22:06;;;;;;;6.47;4.87;;;15.00;78.20;;;;;;5057341;28;20711;-88
2023/04/28 01:24:32;;;;;;;5.33;4.93;;;15.10;77.80;;;;;;5057552;28;20667;-87
2023/04/28 01:26:57;;;;;;;7.67;4.80;;;15.00;79.00;;;;;;5058622;28;20186;-88
2023/04/28 01:29:23;;;;;;;5.50;5.00;;;14.90;79.70;;;;;;5058661;28;20208;-88
2023/04/28 01:31:48;;;;;;;6.33;5.47;;;15.00;78.10;;;;;;5056095;28;20495;-86
2023/04/28 01:34:14;;;;;;;6.17;5.57;;;15.00;77.50;;;;;;5053730;28;20180;-88
2023/04/28 01:36:40;;;;;;;6.00;5.43;;;15.20;77.60;;;;;;5020154;28;20314;-88
2023/04/28 01:39:05;;;;;;;6.10;5.60;;;15.20;76.40;;;;;;5073249;28;20226;-89
2023/04/28 01:41:33;;;;;;;6.30;5.53;;;15.20;76.50;;;;;;5043419;28;20203;-86
2023/04/28 01:43:59;;;;;;;6.57;5.90;;;15.20;76.70;;;;;;5059349;28;20620;-88
2023/04/28 01:46:25;;;;;;;6.37;5.87;;;15.20;76.50;;;;;;5058418;28;20650;-87
2023/04/28 01:48:51;;;;;;;6.00;5.33;;;15.30;75.70;;;;;;5058943;28;20191;-88
2023/04/28 01:51:16;;;;;;;5.83;5.33;;;15.30;74.80;;;;;;5058909;28;20198;-88
2023/04/28 01:57:04;;;;;;;6.60;6.00;;;15.20;77.70;;;;;;5052991;28;20223;-87
2023/04/28 01:59:29;;;;;;;6.43;5.93;;;15.40;75.90;;;;;;5059349;28;20226;-85
2023/04/28 02:01:55;;;;;;;6.17;5.77;;;15.40;75.80;;;;;;5058917;28;20211;-89
2023/04/28 02:04:21;;;;;;;8.43;6.00;;;15.40;74.20;;;;;;5059164;28;20679;-88
2023/04/28 02:06:46;;;;;;;6.60;6.00;;;15.40;73.50;;;;;;5058548;28;20395;-88
2023/04/28 02:09:12;;;;;;;6.57;5.87;;;15.30;74.00;;;;;;5058944;28;20210;-86
2023/04/28 02:11:37;;;;;;;6.40;5.90;;;15.20;76.20;;;;;;5048991;28;20201;-88
2023/04/28 02:14:03;;;;;;;6.43;5.83;;;15.00;77.20;;;;;;5038264;28;20178;-88
2023/04/28 02:16:29;;;;;;;6.97;6.27;;;14.80;79.80;;;;;;5038493;28;20756;-88
2023/04/28 02:18:54;;;;;;;8.90;6.07;;;14.70;79.60;;;;;;5038366;28;20634;-88
2023/04/28 02:21:20;;;;;;;6.97;6.27;;;14.70;79.50;;;;;;5038780;28;20600;-88
2023/04/28 02:23:46;;;;;;;6.00;5.50;;;14.80;80.20;;;;;;5038180;28;20342;-88
2023/04/28 02:26:11;;;;;;;6.87;6.27;;;14.80;81.70;;;;;;5037450;28;20188;-86
2023/04/28 02:28:37;;;;;;;6.77;5.80;;;14.80;81.30;;;;;;5036688;28;20182;-87
2023/04/28 02:31:07;;;;;;;6.50;5.90;;;14.80;82.10;;;;;;5036411;28;20876;-87
2023/04/28 02:33:33;;;;;;;6.90;6.30;;;14.80;82.00;;;;;;5048303;28;20188;-88
2023/04/28 02:35:59;;;;;;;8.27;6.27;;;14.90;83.10;;;;;;5062612;28;20569;-89
2023/04/28 02:38:26;;;;;;;6.80;6.20;;;14.90;83.60;;;;;;5057463;28;20176;-88
2023/04/28 02:41:04;;;;;;;7.20;6.20;;;14.80;83.00;;;;;;5058884;28;20273;-87
2023/04/28 02:43:31;;;;;;;6.73;6.23;;;14.70;82.50;;;;;;5057280;28;20776;-88
2023/04/28 02:45:57;;;;;;;7.40;6.70;;;14.60;85.70;;;;;;5039307;28;20207;-88
2023/04/28 02:48:23;;;;;;;6.90;6.40;;;14.60;85.00;;;;;;5039247;28;20169;-88
2023/04/28 02:50:51;;;;;;;7.17;6.53;;;14.60;84.70;;;;;;5039374;28;20196;-88
2023/04/28 02:53:17;;;;;;;7.63;6.83;;;14.40;84.30;;;;;;5041280;28;20186;-87
2023/04/28 02:55:43;;;;;;;7.00;6.30;;;14.30;86.00;;;;;;5042511;28;20224;-90
2023/04/28 02:58:09;;;;;;;7.40;6.67;;;14.30;84.00;;;;;;5025580;28;20173;-89
2023/04/28 03:00:35;;;;;;;6.90;6.40;;;14.40;85.20;;;;;;5044153;28;20205;-87
2023/04/28 03:03:01;;;;;;;7.03;6.43;;;14.20;86.90;;;;;;5042191;28;20176;-86
2023/04/28 03:05:26;;;;;;;7.03;6.40;;;14.20;85.30;;;;;;5039920;28;20264;-88
2023/04/28 03:07:52;;;;;;;7.00;6.47;;;14.10;88.30;;;;;;5038463;28;20178;-88
2023/04/28 03:10:18;;;;;;;7.17;6.57;;;14.10;86.10;;;;;;5021686;28;20196;-88
2023/04/28 03:12:44;;;;;;;6.60;6.00;;;13.90;86.50;;;;;;5042413;28;20183;-88
2023/04/28 03:15:10;;;;;;;7.37;6.87;;;13.90;87.00;;;;;;5050792;28;20200;-89
2023/04/28 03:17:40;;;;;;;7.17;6.47;;;13.90;89.00;;;;;;5058868;28;20217;-89
2023/04/28 03:20:07;;;;;;;7.27;6.53;;;13.70;87.60;;;;;;5060188;28;20212;-87
2023/04/28 03:22:33;;;;;;;6.87;6.17;;;13.70;85.20;;;;;;5045244;28;20226;-89
2023/04/28 03:24:59;;;;;;;7.53;6.77;;;13.60;88.40;;;;;;5044307;28;20236;-88
2023/04/28 03:27:25;;;;;;;7.93;7.13;;;13.70;87.40;;;;;;5043362;28;20263;-88
2023/04/28 03:29:51;;;;;;;7.10;6.43;;;13.80;88.70;;;;;;5059499;28;20270;-88
2023/04/28 03:32:16;;;;;;;7.97;7.27;;;13.90;88.40;;;;;;5084785;28;20191;-89
2023/04/28 03:34:42;;;;;;;7.17;6.57;;;14.00;86.60;;;;;;5061953;28;20285;-89
2023/04/28 03:37:08;;;;;;;7.17;6.47;;;14.00;85.10;;;;;;5042510;28;20207;-90
2023/04/28 03:39:33;;;;;;;7.40;6.70;;;14.10;84.30;;;;;;5041258;28;20272;-87
2023/04/28 03:42:00;;;;;;;7.00;6.40;;;14.10;85.10;;;;;;5043993;28;20727;-89
2023/04/28 03:44:25;;;;;;;6.97;6.40;;;14.20;83.10;;;;;;5025307;28;20583;-88
2023/04/28 03:46:51;;;;;;;7.13;6.50;;;14.30;84.50;;;;;;5044095;28;20191;-89
2023/04/28 03:49:17;;;;;;;7.40;6.67;;;14.20;83.70;;;;;;5043179;28;20679;-87
2023/04/28 03:51:42;;;;;;;7.23;6.63;;;14.20;83.80;;;;;;5057409;28;20274;-90
2023/04/28 03:54:08;;;;;;;7.03;6.43;;;14.20;85.50;;;;;;5063977;28;20198;-88
2023/04/28 03:56:34;;;;;;;7.60;6.90;;;14.20;87.10;;;;;;5062858;28;20207;-88
2023/04/28 03:59:00;;;;;;;8.03;6.73;;;14.10;85.50;;;;;;5049619;28;20173;-87
2023/04/28 04:01:25;;;;;;;7.47;6.40;;;14.10;85.90;;;;;;5052046;28;20210;-90
2023/04/28 04:03:51;;;;;;;8.00;7.20;;;14.10;86.80;;;;;;5057126;28;20189;-88
2023/04/28 04:06:17;;;;;;;6.80;6.30;;;14.20;85.20;;;;;;5055639;28;20181;-88
2023/04/28 04:11:18;;;;;;;7.07;6.43;;;14.20;88.50;;;;;;5856129;23;20238;-86
2023/04/28 04:13:43;;;;;;;7.03;6.33;;;14.30;88.70;;;;;;5102729;28;20198;-89
2023/04/28 04:16:09;;;;;;;7.67;7.07;;;14.40;88.00;;;;;;5101763;28;20615;-89
2023/04/28 04:18:35;;;;;;;7.97;7.17;;;14.40;87.60;;;;;;5103236;28;20740;-90
2023/04/28 04:21:01;;;;;;;7.33;6.60;;;14.20;86.70;;;;;;5081422;28;20222;-88
2023/04/28 04:23:26;;;;;;;7.37;6.77;;;14.30;87.60;;;;;;5099134;28;20188;-87
2023/04/28 04:25:52;;;;;;;7.37;6.77;;;14.30;88.10;;;;;;5097747;28;20222;-89
2023/04/28 04:28:18;;;;;;;7.30;6.77;;;14.20;89.00;;;;;;5100224;28;20710;-88
2023/04/28 04:30:43;;;;;;;7.33;6.73;;;14.20;88.40;;;;;;5099764;28;20183;-89
2023/04/28 04:33:09;;;;;;;7.20;6.60;;;14.10;87.70;;;;;;5081781;28;20187;-88
2023/04/28 04:35:35;;;;;;;6.97;6.40;;;14.10;89.50;;;;;;5094541;28;20182;-88
2023/04/28 04:38:02;;;;;;;7.20;6.60;;;14.10;89.10;;;;;;5121198;28;20184;-88
2023/04/28 04:40:27;;;;;;;7.63;7.03;;;14.10;88.90;;;;;;5121064;28;20349;-92
2023/04/28 04:42:53;;;;;;;7.57;7.00;;;14.00;89.70;;;;;;5121071;28;20181;-91
2023/04/28 04:45:19;;;;;;;7.17;6.50;;;14.00;91.10;;;;;;5106061;28;20180;-88
2023/04/28 04:47:44;;;;;;;7.23;6.53;;;14.00;89.20;;;;;;5101865;28;20175;-88
2023/04/28 04:50:10;;;;;;;6.90;6.30;;;13.90;89.50;;;;;;5100303;28;20171;-87
2023/04/28 04:52:36;;;;;;;7.73;7.00;;;14.00;89.00;;;;;;5099523;28;20198;-89
2023/04/28 04:55:02;;;;;;;9.33;7.90;;;13.90;89.40;;;;;;5099718;28;20179;-88
2023/04/28 04:57:28;;;;;;;10.43;7.10;;;14.00;90.00;;;;;;5100553;28;20204;-90
2023/04/28 04:59:53;;;;;;;8.30;7.60;;;13.80;90.00;;;;;;5100913;28;20641;-89
2023/04/28 05:02:19;;;;;;;8.20;7.40;;;13.80;90.50;;;;;;5100881;28;20224;-88
2023/04/28 05:04:44;;;;;;;8.37;7.57;;;13.90;90.60;;;;;;5101075;28;20178;-90
2023/04/28 05:07:10;;;;;;;7.50;6.80;;;13.80;91.60;;;;;;5100231;28;20657;-88
2023/04/28 05:09:36;;;;;;;9.70;7.30;;;13.80;92.10;;;;;;5100193;28;20184;-88
2023/04/28 05:12:01;;;;;;;7.90;7.20;;;13.90;91.70;;;;;;5101143;28;20272;-93
2023/04/28 05:14:27;;;;;;;8.53;7.83;;;13.80;92.00;;;;;;5107324;28;20284;-89
2023/04/28 05:16:53;;;;;;;7.83;7.17;;;13.80;92.60;;;;;;5100630;28;20259;-87
2023/04/28 05:19:18;;;;;;;8.00;7.33;;;13.80;93.70;;;;;;5101315;28;20235;-88
2023/04/28 05:21:46;;;;;;;7.87;7.07;;;13.80;93.80;;;;;;5099791;28;20285;-91
2023/04/28 05:24:12;;;;;;;7.80;7.00;;;13.80;94.20;;;;;;5098704;28;20689;-90
2023/04/28 05:26:38;;;;;;;8.53;7.57;;;13.60;95.80;;;;;;5100324;28;20196;-90
2023/04/28 05:29:04;;;;;;;7.90;7.30;;;13.70;95.90;;;;;;5099761;28;20184;-91
2023/04/28 05:31:29;;;;;;;8.17;7.47;;;13.70;96.90;;;;;;5099522;28;20188;-87
2023/04/28 05:33:55;;;;;;;7.93;7.23;;;13.50;98.20;;;;;;5083413;28;20186;-88
2023/04/28 05:36:21;;;;;;;8.13;7.40;;;13.60;98.90;;;;;;5119929;28;20257;-90
2023/04/28 05:38:46;;;;;;;8.53;6.87;;;13.60;98.70;;;;;;5101957;28;20303;-90
2023/04/28 05:41:12;;;;;;;8.00;6.97;;;13.60;99.20;;;;;;5100696;28;20200;-89
2023/04/28 05:43:38;;;;;;;7.43;6.83;;;13.60;99.50;;;;;;5100454;28;20189;-89
2023/04/28 05:46:03;;;;;;;6.83;6.23;;;13.80;98.20;;;;;;5101210;28;20309;-88
2023/04/28 05:48:29;;;;;;;7.27;6.67;;;13.70;99.40;;;;;;5100788;28;20186;-88
2023/04/28 05:50:55;;;;;;;7.50;6.80;;;13.60;99.90;;;;;;5101045;28;20188;-89
2023/04/28 05:53:20;;;;;;;7.67;6.70;;;13.70;99.90;;;;;;5100296;28;20185;-90
2023/04/28 05:55:47;;;;;;;7.43;6.80;;;13.70;99.70;;;;;;5095519;28;20200;-91
2023/04/28 06:35:06;;;;;;;5.70;5.10;;;13.50;99.90;;;;;;5107834;28;20184;-91
2023/04/28 06:37:31;;;;;;;5.70;5.20;;;13.60;99.90;;;;;;5110862;28;20217;-90
2023/04/28 06:39:57;;;;;;;6.67;5.17;;;13.50;99.90;;;;;;5106671;28;20189;-89
2023/04/28 06:42:23;;;;;;;6.17;5.60;;;13.50;99.90;;;;;;5109365;28;20202;-91
2023/04/28 06:44:49;;;;;;;5.10;4.60;;;13.50;99.90;;;;;;5110947;28;20221;-91
2023/04/28 06:47:14;;;;;;;5.30;4.90;;;13.50;99.90;;;;;;5108923;28;20770;-88
2023/04/28 06:49:44;;;;;;;6.60;5.30;;;13.60;99.90;;;;;;5106885;28;20196;-89
2023/04/28 06:52:10;;;;;;;5.90;5.30;;;13.80;99.90;;;;;;5108898;28;20318;-90
2023/04/28 06:54:37;;;;;;;5.43;4.90;;;13.90;99.90;;;;;;5108533;28;20660;-89
2023/04/28 06:57:03;;;;;;;6.03;5.30;;;13.80;99.90;;;;;;5103536;28;20707;-90
2023/04/28 06:59:28;;;;;;;6.13;5.37;;;13.80;99.90;;;;;;5106168;28;20202;-91
2023/04/28 07:01:54;;;;;;;5.90;5.43;;;13.70;99.90;;;;;;5102028;28;20207;-91
2023/04/28 07:04:20;;;;;;;6.43;5.07;;;13.70;99.90;;;;;;5106661;28;20180;-91
2023/04/28 07:06:45;;;;;;;5.17;4.77;;;13.90;99.90;;;;;;5108642;28;20682;-90
2023/04/28 07:09:11;;;;;;;5.70;5.30;;;14.00;99.90;;;;;;5108864;28;20229;-90
2023/04/28 07:11:37;;;;;;;5.60;5.20;;;14.10;99.90;;;;;;5105533;28;20225;-89
2023/04/28 07:14:03;;;;;;;5.33;4.93;;;14.10;99.90;;;;;;5108504;28;20731;-88
2023/04/28 07:16:28;;;;;;;5.30;4.87;;;14.10;99.90;;;;;;5108628;28;20226;-92
2023/04/28 07:18:54;;;;;;;6.00;5.43;;;14.10;99.90;;;;;;5108610;28;20202;-90
2023/04/28 07:21:20;;;;;;;6.23;4.70;;;14.10;99.90;;;;;;5106561;28;20204;-91
2023/04/28 07:23:47;;;;;;;5.40;4.90;;;14.10;99.90;;;;;;5110277;28;20170;-92
2023/04/28 07:26:15;;;;;;;5.17;4.77;;;14.10;99.90;;;;;;5111660;28;20218;-87
2023/04/28 07:28:41;;;;;;;5.77;5.37;;;14.10;99.90;;;;;;5111480;28;20194;-88
2023/04/28 07:31:07;;;;;;;5.27;4.77;;;14.10;99.90;;;;;;5098460;28;20293;-88
2023/04/28 07:33:34;;;;;;;6.00;5.50;;;14.20;99.90;;;;;;5121124;28;20312;-88
2023/04/28 07:35:59;;;;;;;5.23;4.83;;;14.20;99.90;;;;;;5121269;28;20273;-86
2023/04/28 07:38:26;;;;;;;6.13;5.30;;;14.20;99.90;;;;;;5120060;28;20184;-89
2023/04/28 07:40:52;;;;;;;5.70;5.20;;;14.10;99.90;;;;;;5120049;28;20220;-89
2023/04/28 07:43:17;;;;;;;5.60;5.10;;;14.00;99.90;;;;;;5121138;28;20270;-89
2023/04/28 07:45:44;;;;;;;7.07;5.77;;;13.90;99.90;;;;;;5101717;28;20202;-88
2023/04/28 07:48:10;;;;;;;6.30;5.80;;;14.00;99.90;;;;;;5103156;28;20179;-87
2023/04/28 07:50:36;;;;;;;6.20;5.60;;;13.80;99.90;;;;;;5120186;28;20174;-88
2023/04/28 07:53:01;;;;;;;6.37;5.77;;;13.90;99.90;;;;;;5121587;28;20178;-88
2023/04/28 07:55:28;;;;;;;7.10;6.10;;;13.90;99.90;;;;;;5120387;28;20205;-88
2023/04/28 07:57:57;;;;;;;6.43;5.93;;;13.90;99.90;;;;;;5102373;28;20292;-90
2023/04/28 08:00:25;;;;;;;6.10;5.60;;;13.90;99.90;;;;;;5122016;28;20178;-89
2023/04/28 08:02:51;;;;;;;6.73;6.13;;;13.90;99.90;;;;;;5116413;28;20195;-87
2023/04/28 08:05:18;;;;;;;6.70;5.33;;;13.90;99.90;;;;;;5101861;28;20242;-91
2023/04/28 08:07:43;;;;;;;6.47;5.90;;;14.00;99.90;;;;;;5105244;28;20187;-85
2023/04/28 08:10:10;;;;;;;8.30;6.70;;;13.80;99.90;;;;;;5105842;28;20189;-90
2023/04/28 08:12:37;;;;;;;6.83;6.13;;;13.90;99.90;;;;;;5098053;28;20218;-92
2023/04/28 08:15:03;;;;;;;6.13;5.63;;;13.90;99.90;;;;;;5094204;28;20201;-89
2023/04/28 08:17:29;;;;;;;6.40;5.90;;;14.00;99.90;;;;;;5110572;28;20204;-90
2023/04/28 08:19:54;;;;;;;6.87;6.27;;;14.00;99.90;;;;;;5105025;28;20182;-90
2023/04/28 08:22:20;;;;;;;6.40;5.90;;;14.00;99.90;;;;;;5114703;28;20222;-90
2023/04/28 08:24:46;;;;;;;7.80;6.33;;;14.00;99.90;;;;;;5084936;28;20274;-89
2023/04/28 08:27:12;;;;;;;6.27;5.67;;;14.00;99.90;;;;;;5103205;28;20190;-88
2023/04/28 08:29:39;;;;;;;7.07;6.37;;;14.10;99.90;;;;;;5086013;28;20179;-88
2023/04/28 08:32:05;;;;;;;6.57;6.07;;;14.10;99.90;;;;;;5086927;28;20221;-88
2023/04/28 08:34:31;;;;;;;6.77;6.23;;;14.00;99.90;;;;;;5078422;28;20198;-89
2023/04/28 08:36:57;;;;;;;7.67;6.97;;;14.10;99.90;;;;;;5083377;28;20210;-89
2023/04/28 08:39:25;;;;;;;8.23;6.90;;;14.10;99.90;;;;;;5084149;28;20192;-90
2023/04/28 08:41:51;;;;;;;7.43;6.70;;;14.10;99.90;;;;;;5066225;28;20680;-89
2023/04/28 08:44:17;;;;;;;6.40;5.90;;;14.30;99.90;;;;;;5068922;28;20189;-89
2023/04/28 08:46:44;;;;;;;6.63;5.93;;;14.30;99.90;;;;;;5076424;28;20173;-93
2023/04/28 08:49:17;;;;;;;7.53;6.77;;;14.40;99.90;;;;;;5090025;28;20235;-89
2023/04/28 08:51:46;;;;;;;7.07;6.47;;;14.30;99.90;;;;;;5090791;28;20197;-91
2023/04/28 08:54:15;;;;;;;7.10;6.40;;;14.40;99.90;;;;;;5071786;28;20198;-92
2023/04/28 08:56:44;;;;;;;6.77;6.17;;;14.40;99.90;;;;;;5090252;28;20194;-92
2023/04/28 08:59:10;;;;;;;6.50;6.00;;;14.50;99.90;;;;;;5072392;28;20179;-90
2023/04/28 09:01:36;;;;;;;7.17;6.53;;;14.60;99.90;;;;;;5087712;28;20219;-88
2023/04/28 09:04:02;;;;;;;6.73;6.13;;;14.50;99.90;;;;;;5089999;28;20276;-87
2023/04/28 09:06:36;;;;;;;6.57;6.07;;;14.50;99.90;;;;;;5065527;28;20257;-90
2023/04/28 09:09:22;;;;;;;6.80;6.27;;;14.40;99.90;;;;;;5063998;28;20178;-88
2023/04/28 09:11:54;;;;;;;6.30;5.73;;;14.50;99.90;;;;;;5081745;28;20210;-89
2023/04/28 09:14:24;;;;;;;7.63;6.87;;;14.50;99.90;;;;;;5083798;28;20284;-88
2023/04/28 09:16:50;;;;;;;6.77;6.17;;;14.70;99.90;;;;;;5098663;28;20703;-90
2023/04/28 09:19:16;;;;;;;7.17;6.47;;;14.60;99.90;;;;;;5101892;28;20184;-89
2023/04/28 09:22:00;;;;;;;7.13;6.50;;;14.70;99.90;;;;;;5101618;28;20186;-89
2023/04/28 09:24:30;;;;;;;6.43;5.93;;;14.80;99.90;;;;;;5101640;28;20216;-89
2023/04/28 09:26:57;;;;;;;6.37;5.87;;;15.00;99.90;;;;;;5101301;28;20186;-89
2023/04/28 09:29:23;;;;;;;6.73;6.13;;;15.00;99.90;;;;;;5102325;28;20196;-88
2023/04/28 09:31:49;;;;;;;7.30;6.70;;;15.00;99.90;;;;;;5103226;28;20194;-89
2023/04/28 09:34:14;;;;;;;6.43;5.73;;;15.10;99.90;;;;;;5102766;28;20201;-90
2023/04/28 09:36:40;;;;;;;7.17;6.57;;;15.10;99.90;;;;;;5101568;28;20761;-88
2023/04/28 09:39:06;;;;;;;6.43;5.93;;;15.10;99.90;;;;;;5100890;28;20685;-90
2023/04/28 09:41:42;;;;;;;6.33;5.60;;;15.30;99.90;;;;;;5101525;28;20315;-89
2023/04/28 09:44:13;;;;;;;6.00;5.53;;;15.40;99.90;;;;;;5101444;28;20174;-90
2023/04/28 09:46:39;;;;;;;6.03;5.43;;;15.40;99.90;;;;;;5102775;28;20294;-91
2023/04/28 09:49:08;;;;;;;6.70;6.10;;;15.30;99.90;;;;;;5101909;28;20346;-89
2023/04/28 09:51:34;;;;;;;6.47;5.87;;;15.30;99.90;;;;;;5101603;28;20203;-90
2023/04/28 09:54:04;;;;;;;6.20;5.70;;;15.40;99.90;;;;;;5102754;28;20178;-90
2023/04/28 09:56:32;;;;;;;6.60;6.07;;;15.40;99.90;;;;;;5105524;28;20195;-88
2023/04/28 09:59:00;;;;;;;6.47;5.93;;;15.50;99.90;;;;;;5101871;28;20183;-91
2023/04/28 10:01:39;;;;;;;6.00;5.50;;;15.40;99.90;;;;;;5099180;28;20297;-89
2023/04/28 10:04:06;;;;;;;6.50;6.00;;;15.50;99.90;;;;;;5100695;28;20247;-90
2023/04/28 10:06:35;;;;;;;5.83;5.33;;;15.60;99.90;;;;;;5100120;28;20256;-90
2023/04/28 10:09:01;;;;;;;5.80;5.30;;;15.60;99.90;;;;;;5081574;28;20658;-93
2023/04/28 10:11:28;;;;;;;6.00;5.50;;;15.60;99.90;;;;;;5100770;28;20211;-91
2023/04/28 10:13:53;;;;;;;6.20;5.70;;;15.60;99.90;;;;;;5100300;28;20276;-88
2023/04/28 10:16:20;;;;;;;5.47;5.07;;;15.60;99.90;;;;;;5100517;28;20225;-92
2023/04/28 10:18:45;;;;;;;5.50;5.00;;;15.60;99.90;;;;;;5099733;28;20181;-90
2023/04/28 10:21:16;;;;;;;5.80;5.30;;;15.60;99.90;;;;;;5097012;28;20195;-90
2023/04/28 10:24:01;;;;;;;5.50;5.00;;;15.70;99.90;;;;;;5082332;28;20179;-89
2023/04/28 10:27:11;;;;;;;5.63;5.10;;;15.80;99.90;;;;;;5104351;28;20266;-90
2023/04/28 10:29:37;;;;;;;5.73;5.13;;;15.80;99.90;;;;;;4983816;28;20204;-90
2023/04/28 10:32:22;;;;;;;6.00;5.50;;;15.90;99.90;;;;;;5081056;28;20238;-89
2023/04/28 10:34:48;;;;;;;5.93;5.43;;;15.90;99.90;;;;;;5102382;28;20166;-89
2023/04/28 10:37:14;;;;;;;5.70;5.20;;;16.10;99.90;;;;;;5104031;28;20198;-89
2023/04/28 10:40:01;;;;;;;5.80;5.30;;;16.10;99.90;;;;;;5084938;28;20190;-91
2023/04/28 10:42:53;;;;;;;5.40;5.00;;;16.20;99.90;;;;;;5102350;28;20286;-89
2023/04/28 10:45:53;;;;;;;5.20;4.80;;;16.30;99.90;;;;;;5098365;28;20238;-90
2023/04/28 10:48:32;;;;;;;6.13;5.63;;;16.40;99.90;;;;;;5102907;28;20182;-89
2023/04/28 10:51:04;;;;;;;5.90;5.40;;;16.60;99.90;;;;;;5083554;28;20199;-90
2023/04/28 10:53:44;;;;;;;5.63;5.13;;;16.60;99.90;;;;;;5083007;28;20776;-90
2023/04/28 10:56:15;;;;;;;5.53;5.03;;;16.50;99.90;;;;;;5102844;28;20205;-90
2023/04/28 10:58:42;;;;;;;5.90;5.40;;;16.50;99.90;;;;;;5102215;28;20330;-90
2023/04/28 11:01:20;;;;;;;5.30;4.90;;;16.60;99.90;;;;;;5084612;28;20249;-90
2023/04/28 11:03:50;;;;;;;5.30;4.90;;;16.40;99.90;;;;;;5100296;28;20532;-90
2023/04/28 11:06:27;;;;;;;5.17;4.77;;;16.40;99.90;;;;;;5101466;28;20180;-91
2023/04/28 11:08:59;;;;;;;4.90;4.50;;;16.50;99.90;;;;;;5102729;28;20186;-92
2023/04/28 11:11:26;;;;;;;5.30;5.00;;;16.60;99.90;;;;;;5080733;28;20202;-91
2023/04/28 11:14:12;;;;;;;6.53;5.20;;;16.50;99.90;;;;;;5101185;28;20195;-92
2023/04/28 11:17:04;;;;;;;4.87;4.47;;;16.60;99.90;;;;;;5101403;28;20207;-90
2023/04/28 11:19:35;;;;;;;5.40;4.90;;;16.60;99.90;;;;;;5101567;28;20205;-91
2023/04/28 11:22:03;;;;;;;5.27;4.77;;;16.50;99.90;;;;;;5100860;28;20262;-91
2023/04/28 11:24:29;;;;;;;5.20;4.70;;;16.70;99.90;;;;;;5100753;28;20263;-92
2023/04/28 11:26:57;;;;;;;5.23;4.33;;;16.70;99.90;;;;;;5083755;28;20182;-89
2023/04/28 11:29:41;;;;;;;5.13;4.83;;;16.80;99.90;;;;;;5103008;28;20317;-89
2023/04/28 11:32:09;;;;;;;5.67;5.17;;;16.70;99.90;;;;;;5098797;28;20261;-89
2023/04/28 11:34:36;;;;;;;5.07;4.77;;;16.60;99.90;;;;;;5123859;28;20178;-89
2023/04/28 11:37:02;;;;;;;4.97;4.67;;;16.60;99.90;;;;;;5105331;28;20199;-89
2023/04/28 11:39:33;;;;;;;4.60;4.20;;;16.60;99.90;;;;;;5106915;28;20673;-88
2023/04/28 11:42:01;;;;;;;5.40;5.00;;;16.50;99.90;;;;;;5106535;28;20272;-87
2023/04/28 11:44:29;;;;;;;5.30;4.80;;;16.50;99.90;;;;;;5106546;28;20167;-87
2023/04/28 11:46:59;;;;;;;4.93;4.53;;;16.60;99.90;;;;;;5105929;28;20175;-88
2023/04/28 11:49:50;;;;;;;4.37;4.07;;;16.80;99.90;;;;;;5088789;28;20187;-88
2023/04/28 11:52:16;;;;;;;4.13;3.70;;;16.80;99.90;;;;;;5078828;28;20223;-87
2023/04/28 11:54:42;;;;;;;4.10;3.80;;;16.90;99.90;;;;;;5105607;28;20203;-88
2023/04/28 11:57:20;;;;;;;4.63;4.23;;;17.00;99.90;;;;;;5105969;28;20284;-87
2023/04/28 11:59:46;;;;;;;4.20;3.90;;;16.90;99.90;;;;;;5106007;28;20167;-87
2023/04/28 12:02:18;;;;;;;4.50;4.10;;;16.80;99.90;;;;;;5087830;28;20202;-89
2023/04/28 12:04:44;;;;;;;5.30;4.23;;;16.80;99.90;;;;;;5068236;28;20187;-88
2023/04/28 12:07:12;;;;;;;3.70;3.40;;;16.80;99.90;;;;;;5101508;28;20179;-90
2023/04/28 12:09:40;;;;;;;3.70;3.40;;;16.70;99.90;;;;;;5102823;28;20300;-90
2023/04/28 12:12:07;;;;;;;3.90;3.50;;;16.60;99.90;;;;;;5086263;28;20212;-88
2023/04/28 12:14:56;;;;;;;3.80;3.30;;;16.50;99.90;;;;;;5107661;28;20171;-92
2023/04/28 12:17:30;;;;;;;3.30;3.10;;;16.40;99.90;;;;;;5119540;28;20216;-94
2023/04/28 12:19:57;;;;;;;3.53;3.23;;;16.50;99.90;;;;;;5102470;28;20185;-93
2023/04/28 12:22:24;;;;;;;3.40;3.20;;;16.60;99.90;;;;;;5118879;28;20186;-92
2023/04/28 12:25:02;;;;;;;3.90;3.60;;;16.80;99.90;;;;;;5119571;28;20230;-93
2023/04/28 12:27:28;;;;;;;3.30;3.10;;;17.00;99.90;;;;;;5084807;28;20181;-89
2023/04/28 12:29:55;;;;;;;3.30;3.00;;;16.90;99.90;;;;;;5103715;28;20235;-90
2023/04/28 12:32:40;;;;;;;3.63;3.40;;;17.10;99.90;;;;;;5106166;28;20195;-91
2023/04/28 12:35:07;;;;;;;3.30;3.10;;;17.30;99.90;;;;;;5087883;28;20255;-90
2023/04/28 12:37:33;;;;;;;3.50;3.30;;;17.60;99.90;;;;;;5104504;28;20206;-90
2023/04/28 12:39:59;;;;;;;3.40;3.20;;;17.70;99.90;;;;;;5103876;28;20258;-91
2023/04/28 12:42:25;;;;;;;3.57;3.37;;;17.60;99.90;;;;;;5084616;28;20255;-92
2023/04/28 12:44:50;;;;;;;3.43;3.23;;;17.40;99.90;;;;;;5104535;28;20252;-90
2023/04/28 12:47:20;;;;;;;4.00;3.70;;;17.60;99.90;;;;;;5089017;28;20217;-91
2023/04/28 12:49:47;;;;;;;3.30;3.10;;;17.70;99.90;;;;;;5087194;28;20652;-91
2023/04/28 12:52:12;;;;;;;3.20;3.00;;;17.60;99.90;;;;;;5104568;28;20546;-90
2023/04/28 12:54:41;;;;;;;3.10;2.90;;;17.50;99.90;;;;;;5086903;28;20180;-92
2023/04/28 12:57:06;;;;;;;3.10;2.90;;;17.40;99.90;;;;;;5106618;28;20195;-91
2023/04/28 12:59:32;;;;;;;3.80;3.27;;;17.60;99.90;;;;;;5109577;28;20182;-90
2023/04/28 13:01:58;;;;;;;3.37;3.07;;;17.80;99.90;;;;;;5097309;28;20196;-93
2023/04/28 13:04:24;;;;;;;3.20;3.00;;;17.80;99.90;;;;;;5099925;28;20191;-95
2023/04/28 13:06:50;;;;;;;3.37;3.07;;;17.60;99.90;;;;;;5137720;27;20167;-94
2023/04/28 13:09:16;;;;;;;2.80;2.60;;;17.60;99.90;;;;;;5110013;28;20188;-91
2023/04/28 13:11:43;;;;;;;3.80;3.50;;;17.60;99.90;;;;;;5110669;28;20206;-90
2023/04/28 13:14:14;;;;;;;3.37;3.07;;;17.60;99.90;;;;;;5112037;28;20201;-92
2023/04/28 13:16:39;;;;;;;3.27;2.90;;;17.70;99.90;;;;;;5129775;28;20225;-92
2023/04/28 13:19:09;;;;;;;3.53;3.23;;;17.60;99.90;;;;;;5120671;28;20175;-91
2023/04/28 13:21:36;;;;;;;3.07;2.87;;;17.40;99.90;;;;;;5087741;28;20194;-91
2023/04/28 13:24:03;;;;;;;3.10;2.80;;;17.30;99.90;;;;;;5104268;28;20179;-91
2023/04/28 13:26:30;;;;;;;3.13;2.87;;;17.30;99.90;;;;;;5106236;28;20212;-92
2023/04/28 13:28:56;;;;;;;3.03;2.73;;;17.10;99.90;;;;;;5086687;28;20179;-92
2023/04/28 13:31:21;;;;;;;2.93;2.70;;;17.10;99.90;;;;;;5105972;28;20233;-93
2023/04/28 13:33:47;;;;;;;3.00;2.80;;;17.00;99.90;;;;;;5087066;28;20532;-92